createdAt,value
2022-11-21T00:01:25.497Z,87.29
2022-11-21T00:03:55.921Z,87.14
2022-11-21T00:06:24.711Z,87.04
2022-11-21T00:08:53.876Z,87.42
2022-11-21T00:11:22.607Z,87.30
2022-11-21T00:13:51.448Z,87.69
2022-11-21T00:16:20.238Z,87.87
2022-11-21T00:18:48.974Z,87.89
2022-11-21T00:21:20.783Z,88.40
2022-11-21T00:23:49.977Z,88.78
2022-11-21T00:26:18.758Z,89.04
2022-11-21T00:28:47.882Z,88.93
2022-11-21T00:31:25.773Z,88.92
2022-11-21T00:33:54.953Z,88.91
2022-11-21T00:36:25.117Z,88.84
2022-11-21T00:38:53.856Z,88.80
2022-11-21T00:41:22.655Z,88.81
2022-11-21T00:43:51.365Z,88.88
2022-11-21T00:46:20.054Z,89.29
2022-11-21T00:48:48.727Z,89.50
2022-11-21T00:51:17.522Z,89.31
2022-11-21T00:53:47.866Z,89.24
2022-11-21T00:56:16.970Z,89.23
2022-11-21T00:58:45.714Z,89.10
2022-11-21T01:01:16.887Z,89.58
2022-11-21T01:03:46.346Z,89.55
2022-11-21T01:06:16.705Z,89.57
2022-11-21T01:08:47.163Z,90.08
2022-11-21T01:11:18.845Z,90.57
2022-11-21T01:13:48.849Z,90.42
2022-11-21T01:16:20.518Z,89.96
2022-11-21T01:18:49.691Z,89.94
2022-11-21T01:21:21.532Z,90.23
2022-11-21T01:23:52.193Z,90.06
2022-11-21T01:26:24.296Z,89.88
2022-11-21T01:28:53.731Z,89.52
2022-11-21T01:31:25.058Z,89.61
2022-11-21T01:33:55.137Z,89.89
2022-11-21T01:36:27.001Z,89.55
2022-11-21T01:39:00.863Z,89.56
2022-11-21T01:41:35.927Z,89.44
2022-11-21T01:44:16.247Z,89.59
2022-11-21T01:46:45.042Z,89.92
2022-11-21T01:49:19.174Z,89.77
2022-11-21T01:51:57.304Z,89.77
2022-11-21T01:54:34.988Z,89.80
2022-11-21T01:57:09.925Z,89.66
2022-11-21T01:59:46.904Z,89.56
2022-11-21T02:02:21.782Z,89.59
2022-11-21T02:04:53.407Z,91.30
2022-11-21T02:07:24.920Z,91.51
2022-11-21T02:10:01.009Z,91.63
2022-11-21T02:12:39.284Z,91.49
2022-11-21T02:15:09.863Z,91.41
2022-11-21T02:17:38.669Z,91.18
2022-11-21T02:20:14.535Z,91.09
2022-11-21T02:22:54.648Z,90.97
2022-11-21T02:25:28.495Z,91.19
2022-11-21T02:28:02.745Z,91.37
2022-11-21T02:30:36.520Z,91.38
2022-11-21T02:33:06.134Z,91.73
2022-11-21T02:35:35.518Z,91.84
2022-11-21T02:38:11.384Z,91.88
2022-11-21T02:40:49.892Z,91.80
2022-11-21T02:43:24.729Z,92.10
2022-11-21T02:45:53.503Z,92.48
2022-11-21T02:48:22.298Z,92.04
2022-11-21T02:50:51.070Z,92.60
2022-11-21T02:53:20.973Z,92.95
2022-11-21T02:55:51.183Z,92.79
2022-11-21T02:58:19.934Z,92.98
2022-11-21T03:00:48.651Z,92.78
2022-11-21T03:03:17.670Z,93.03
2022-11-21T03:05:46.418Z,93.06
2022-11-21T03:08:15.159Z,92.94
2022-11-21T03:10:43.940Z,93.07
2022-11-21T03:13:15.126Z,93.16
2022-11-21T03:15:43.929Z,94.07
2022-11-21T03:18:12.700Z,93.68
2022-11-21T03:20:41.582Z,93.93
2022-11-21T03:23:10.275Z,93.76
2022-11-21T03:25:38.980Z,94.05
2022-11-21T03:28:07.819Z,94.03
2022-11-21T03:30:38.079Z,94.27
2022-11-21T03:33:06.830Z,94.41
2022-11-21T03:35:35.551Z,94.67
2022-11-21T03:38:04.408Z,95.39
2022-11-21T03:40:33.157Z,95.14
2022-11-21T03:43:07.908Z,95.68
2022-11-21T03:45:38.040Z,95.76
2022-11-21T03:48:07.685Z,95.70
2022-11-21T03:50:36.572Z,95.54
2022-11-21T03:53:05.384Z,95.69
2022-11-21T03:55:47.412Z,95.79
2022-11-21T03:58:16.236Z,95.70
2022-11-21T04:00:48.987Z,95.71
2022-11-21T04:03:26.663Z,95.94
2022-11-21T04:05:55.467Z,96.68
2022-11-21T04:08:24.183Z,97.08
2022-11-21T04:10:55.708Z,96.91
2022-11-21T04:13:24.580Z,96.95
2022-11-21T04:15:54.837Z,96.80
2022-11-21T04:18:23.776Z,96.65
2022-11-21T04:20:58.981Z,96.84
2022-11-21T04:23:29.099Z,96.85
2022-11-21T04:25:58.199Z,96.76
2022-11-21T04:28:27.578Z,96.81
2022-11-21T04:31:05.753Z,97.01
2022-11-21T04:33:37.627Z,96.99
2022-11-21T04:36:06.881Z,96.89
2022-11-21T04:38:35.704Z,96.93
2022-11-21T04:41:04.905Z,97.05
2022-11-21T04:43:33.762Z,97.33
2022-11-21T04:46:03.994Z,97.46
2022-11-21T04:48:33.789Z,97.57
2022-11-21T04:51:02.517Z,97.53
2022-11-21T04:53:31.232Z,97.53
2022-11-21T04:56:00.419Z,97.49
2022-11-21T04:58:29.297Z,97.88
2022-11-21T05:00:58.124Z,97.88
2022-11-21T05:03:28.268Z,97.89
2022-11-21T05:05:57.015Z,97.90
2022-11-21T05:08:25.795Z,98.14
2022-11-21T05:11:12.044Z,98.32
2022-11-21T05:13:40.751Z,98.27
2022-11-21T05:16:09.576Z,98.25
2022-11-21T05:18:39.934Z,98.73
2022-11-21T05:21:08.776Z,98.77
2022-11-21T05:23:37.543Z,98.83
2022-11-21T05:26:06.314Z,98.60
2022-11-21T05:28:35.128Z,100.00
2022-11-21T05:31:03.896Z,99.72
2022-11-21T05:33:32.631Z,99.58
2022-11-21T05:36:11.882Z,99.19
2022-11-21T05:38:41.702Z,99.50
2022-11-21T05:41:11.020Z,99.26
2022-11-21T05:43:47.895Z,99.64
2022-11-21T05:46:19.735Z,99.72
2022-11-21T05:48:50.809Z,99.59
2022-11-21T05:51:22.035Z,99.85
2022-11-21T05:53:51.009Z,100.00
2022-11-21T05:56:20.980Z,100.00
2022-11-21T05:58:49.730Z,100.00
2022-11-21T06:01:39.237Z,100.00
2022-11-21T06:04:07.462Z,100.00
2022-11-21T06:06:38.162Z,100.00
2022-11-21T06:09:06.963Z,100.00
2022-11-21T06:11:35.778Z,100.00
2022-11-21T06:14:08.804Z,100.00
2022-11-21T06:16:37.606Z,100.00
2022-11-21T06:19:06.486Z,100.00
2022-11-21T06:21:37.414Z,100.00
2022-11-21T06:24:07.974Z,100.00
2022-11-21T06:26:36.772Z,100.00
2022-11-21T06:29:05.489Z,100.00
2022-11-21T06:31:34.266Z,100.00
2022-11-21T06:34:03.357Z,100.00
2022-11-21T06:36:32.156Z,100.00
2022-11-21T06:39:02.418Z,100.00
2022-11-21T06:41:32.081Z,100.00
2022-11-21T06:44:01.967Z,100.00
2022-11-21T06:46:31.162Z,100.00
2022-11-21T06:48:59.947Z,100.00
2022-11-21T06:51:28.693Z,100.00
2022-11-21T06:54:00.101Z,100.00
2022-11-21T06:56:32.646Z,100.00
2022-11-21T06:59:01.631Z,100.00
2022-11-21T07:01:30.373Z,100.00
2022-11-21T07:03:59.236Z,100.00
2022-11-21T07:06:28.044Z,100.00
2022-11-21T07:11:47.169Z,100.00
2022-11-21T07:14:14.872Z,100.00
2022-11-21T07:16:43.650Z,100.00
2022-11-21T07:19:13.073Z,100.00
2022-11-21T07:21:43.166Z,100.00
2022-11-21T07:24:12.231Z,100.00
2022-11-21T07:26:40.942Z,100.00
2022-11-21T07:29:11.073Z,100.00
2022-11-21T07:31:39.802Z,100.00
2022-11-21T07:34:08.556Z,100.00
2022-11-21T07:36:37.418Z,100.00
2022-11-21T07:39:06.651Z,100.00
2022-11-21T07:41:35.402Z,100.00
2022-11-21T07:44:04.387Z,100.00
2022-11-21T07:46:34.629Z,100.00
2022-11-21T07:49:03.927Z,100.00
2022-11-21T07:51:32.837Z,100.00
2022-11-21T07:54:01.595Z,100.00
2022-11-21T07:56:30.321Z,100.00
2022-11-21T07:58:59.135Z,100.00
2022-11-21T08:01:28.128Z,100.00
2022-11-21T08:03:58.282Z,100.00
2022-11-21T08:06:26.994Z,100.00
2022-11-21T08:08:56.081Z,100.00
2022-11-21T08:11:25.900Z,100.00
2022-11-21T08:13:54.625Z,100.00
2022-11-21T08:16:28.032Z,100.00
2022-11-21T08:18:58.250Z,100.00
2022-11-21T08:21:27.628Z,100.00
2022-11-21T08:23:56.505Z,100.00
2022-11-21T08:26:25.261Z,100.00
2022-11-21T08:28:59.589Z,100.00
2022-11-21T08:31:28.823Z,100.00
2022-11-21T08:33:59.648Z,100.00
2022-11-21T08:36:28.480Z,100.00
2022-11-21T08:38:57.317Z,99.66
2022-11-21T08:41:43.831Z,99.41
2022-11-21T08:44:14.232Z,98.65
2022-11-21T08:46:43.243Z,98.72
2022-11-21T08:49:13.373Z,98.52
2022-11-21T08:51:42.137Z,98.30
2022-11-21T08:54:11.353Z,97.73
2022-11-21T08:56:40.123Z,96.99
2022-11-21T08:59:08.882Z,96.90
2022-11-21T09:01:37.653Z,96.02
2022-11-21T09:04:06.901Z,96.60
2022-11-21T09:06:37.741Z,95.90
2022-11-21T09:09:07.777Z,96.75
2022-11-21T09:11:38.135Z,97.10
2022-11-21T09:14:24.215Z,96.89
2022-11-21T09:17:10.925Z,96.70
2022-11-21T09:19:39.724Z,96.75
2022-11-21T09:22:09.865Z,97.18
2022-11-21T09:24:38.623Z,96.80
2022-11-21T09:27:10.094Z,97.15
2022-11-21T09:29:39.010Z,97.57
2022-11-21T09:32:07.983Z,97.14
2022-11-21T09:34:36.712Z,96.94
2022-11-21T09:37:05.456Z,96.76
2022-11-21T09:39:35.736Z,96.57
2022-11-21T09:42:48.331Z,96.62
2022-11-21T09:45:24.738Z,97.08
2022-11-21T09:47:54.826Z,96.71
2022-11-21T09:50:32.416Z,96.80
2022-11-21T09:53:08.518Z,96.41
2022-11-21T09:55:48.006Z,96.73
2022-11-21T09:58:27.883Z,97.08
2022-11-21T10:00:57.030Z,96.56
2022-11-21T10:03:32.886Z,96.13
2022-11-21T10:06:14.014Z,96.54
2022-11-21T10:08:56.683Z,96.51
2022-11-21T10:11:58.444Z,95.55
2022-11-21T10:14:48.128Z,95.66
2022-11-21T10:17:32.927Z,95.85
2022-11-21T10:20:32.235Z,95.26
2022-11-21T10:23:22.904Z,94.84
2022-11-21T10:25:58.363Z,95.01
2022-11-21T10:28:39.859Z,94.93
2022-11-21T10:31:16.160Z,94.46
2022-11-21T10:33:45.545Z,94.96
2022-11-21T10:36:26.156Z,95.14
2022-11-21T10:39:01.884Z,95.52
2022-11-21T10:41:47.500Z,95.46
2022-11-21T10:44:45.279Z,94.29
2022-11-21T10:47:27.425Z,92.91
2022-11-21T10:50:14.244Z,94.17
2022-11-21T10:52:50.500Z,93.84
2022-11-21T10:55:20.213Z,93.30
2022-11-21T10:57:51.219Z,93.35
2022-11-21T11:00:29.734Z,93.79
2022-11-21T11:03:17.194Z,93.45
2022-11-21T11:05:58.983Z,92.84
2022-11-21T11:08:31.878Z,93.67
2022-11-21T11:11:07.878Z,93.86
2022-11-21T11:13:58.225Z,93.61
2022-11-21T11:16:31.003Z,93.58
2022-11-21T11:19:03.391Z,93.23
2022-11-21T11:21:45.160Z,92.82
2022-11-21T11:24:30.144Z,93.25
2022-11-21T11:27:02.729Z,93.04
2022-11-21T11:29:35.383Z,93.20
2022-11-21T11:32:21.562Z,93.33
2022-11-21T11:35:01.217Z,93.18
2022-11-21T11:37:41.113Z,92.96
2022-11-21T11:40:23.117Z,92.63
2022-11-21T11:43:27.741Z,92.47
2022-11-21T11:46:47.129Z,92.74
2022-11-21T11:49:31.700Z,92.30
2022-11-21T11:52:07.309Z,92.06
2022-11-21T11:54:47.757Z,92.24
2022-11-21T11:57:18.301Z,91.87
2022-11-21T11:59:55.245Z,92.26
2022-11-21T12:02:34.903Z,92.77
2022-11-21T12:05:16.771Z,92.00
2022-11-21T12:11:14.610Z,91.58
2022-11-21T12:13:45.300Z,92.05
2022-11-21T12:16:16.578Z,91.94
2022-11-21T12:18:56.037Z,91.86
2022-11-21T12:21:26.647Z,92.07
2022-11-21T12:23:58.093Z,92.37
2022-11-21T12:26:49.714Z,91.70
2022-11-21T12:29:38.592Z,91.85
2022-11-21T12:32:30.405Z,91.66
2022-11-21T12:35:40.261Z,91.07
2022-11-21T12:38:33.321Z,91.30
2022-11-21T12:41:33.317Z,91.57
2022-11-21T12:44:22.060Z,91.61
2022-11-21T12:47:14.923Z,91.64
2022-11-21T12:50:13.130Z,91.22
2022-11-21T12:53:05.893Z,91.36
2022-11-21T12:55:40.908Z,91.45
2022-11-21T12:58:28.929Z,91.55
2022-11-21T13:01:22.266Z,91.26
2022-11-21T13:04:01.805Z,91.22
2022-11-21T13:06:35.895Z,91.80
2022-11-21T13:09:13.457Z,90.97
2022-11-21T13:12:01.748Z,90.53
2022-11-21T13:14:42.107Z,90.83
2022-11-21T13:17:42.710Z,90.96
2022-11-21T13:20:24.811Z,90.87
2022-11-21T13:22:57.254Z,91.37
2022-11-21T13:25:49.514Z,91.35
2022-11-21T13:28:36.434Z,91.58
2022-11-21T13:31:30.800Z,91.04
2022-11-21T13:34:00.368Z,91.85
2022-11-21T13:36:43.894Z,91.53
2022-11-21T13:39:39.086Z,91.68
2022-11-21T13:42:33.488Z,91.88
2022-11-21T13:45:43.314Z,91.34
2022-11-21T13:48:59.397Z,91.42
2022-11-21T13:51:56.478Z,91.65
2022-11-21T13:55:20.285Z,91.66
2022-11-21T13:58:12.791Z,90.80
2022-11-21T14:01:08.221Z,90.93
2022-11-21T14:04:07.408Z,91.28
2022-11-21T14:06:43.442Z,91.39
2022-11-21T14:09:29.300Z,91.04
2022-11-21T14:12:02.344Z,91.45
2022-11-21T14:14:38.412Z,91.50
2022-11-21T14:17:35.338Z,91.11
2022-11-21T14:20:20.169Z,91.18
2022-11-21T14:22:58.789Z,91.01
2022-11-21T14:25:37.989Z,91.24
2022-11-21T14:28:13.132Z,90.92
2022-11-21T14:30:44.390Z,91.34
2022-11-21T14:33:26.018Z,91.93
2022-11-21T14:35:59.363Z,91.91
2022-11-21T14:38:30.725Z,91.70
2022-11-21T14:41:30.022Z,92.04
2022-11-21T14:44:22.038Z,92.01
2022-11-21T14:46:52.316Z,92.12
2022-11-21T14:49:30.487Z,92.02
2022-11-21T14:52:22.514Z,91.61
2022-11-21T14:57:46.252Z,90.96
2022-11-21T15:00:58.136Z,91.07
2022-11-21T15:03:22.823Z,91.25
2022-11-21T15:06:05.216Z,91.60
2022-11-21T15:11:31.746Z,91.38
2022-11-21T15:14:16.507Z,91.52
2022-11-21T15:16:48.020Z,91.87
2022-11-21T15:19:23.325Z,91.34
2022-11-21T15:21:58.159Z,91.35
2022-11-21T15:24:40.568Z,91.84
2022-11-21T15:27:34.130Z,91.93
2022-11-21T15:30:08.420Z,92.45
2022-11-21T15:33:02.199Z,93.16
2022-11-21T15:35:47.437Z,92.68
2022-11-21T15:38:48.234Z,92.29
2022-11-21T15:41:30.563Z,92.21
2022-11-21T15:44:22.248Z,92.43
2022-11-21T15:46:53.719Z,92.36
2022-11-21T15:49:32.870Z,92.61
2022-11-21T15:52:10.208Z,92.24
2022-11-21T15:54:40.642Z,92.01
2022-11-21T15:57:10.557Z,92.14
2022-11-21T15:59:39.752Z,92.03
2022-11-21T16:02:13.568Z,91.50
2022-11-21T16:04:42.886Z,91.67
2022-11-21T16:07:11.757Z,91.61
2022-11-21T16:09:43.224Z,91.50
2022-11-21T16:12:11.979Z,91.57
2022-11-21T16:14:40.885Z,91.46
2022-11-21T16:17:10.074Z,91.51
2022-11-21T16:19:39.316Z,91.27
2022-11-21T16:22:08.358Z,91.14
2022-11-21T16:24:37.358Z,90.97
2022-11-21T16:27:07.596Z,90.89
2022-11-21T16:29:36.537Z,91.67
2022-11-21T16:32:05.639Z,91.78
2022-11-21T16:34:34.479Z,91.56
2022-11-21T16:37:07.316Z,91.72
2022-11-21T16:39:36.545Z,91.89
2022-11-21T16:42:06.876Z,91.29
2022-11-21T16:44:35.710Z,91.95
2022-11-21T16:47:08.269Z,91.87
2022-11-21T16:49:42.904Z,92.32
2022-11-21T16:52:12.577Z,92.35
2022-11-21T16:54:41.544Z,92.53
2022-11-21T16:57:11.767Z,92.21
2022-11-21T16:59:40.599Z,92.70
2022-11-21T17:02:10.669Z,92.15
2022-11-21T17:04:39.553Z,92.23
2022-11-21T17:07:08.336Z,92.17
2022-11-21T17:09:37.196Z,92.10
2022-11-21T17:12:06.911Z,92.33
2022-11-21T17:14:37.219Z,92.03
2022-11-21T17:17:06.079Z,92.50
2022-11-21T17:19:34.947Z,92.42
2022-11-21T17:22:05.126Z,92.57
2022-11-21T17:24:43.611Z,92.83
2022-11-21T17:27:12.813Z,92.65
2022-11-21T17:29:43.914Z,92.36
2022-11-21T17:32:13.572Z,91.94
2022-11-21T17:34:43.428Z,91.68
2022-11-21T17:37:13.305Z,91.78
2022-11-21T17:39:42.374Z,91.70
2022-11-21T17:42:11.231Z,91.60
2022-11-21T17:44:40.793Z,91.86
2022-11-21T17:47:13.075Z,92.32
2022-11-21T17:49:42.305Z,91.78
2022-11-21T17:52:12.601Z,91.58
2022-11-21T17:54:42.530Z,91.48
2022-11-21T17:57:14.229Z,91.52
2022-11-21T17:59:45.087Z,91.66
2022-11-21T18:02:15.634Z,91.64
2022-11-21T18:04:47.985Z,91.39
2022-11-21T18:07:17.667Z,91.07
2022-11-21T18:09:48.166Z,90.92
2022-11-21T18:12:19.859Z,91.00
2022-11-21T18:14:50.082Z,91.04
2022-11-21T18:17:20.677Z,90.81
2022-11-21T18:19:53.183Z,90.53
2022-11-21T18:22:29.285Z,90.55
2022-11-21T18:24:58.677Z,90.21
2022-11-21T18:27:29.585Z,90.16
2022-11-21T18:29:58.400Z,90.11
2022-11-21T18:32:29.854Z,90.15
2022-11-21T18:35:02.114Z,90.02
2022-11-21T18:37:31.754Z,89.95
2022-11-21T18:40:00.513Z,89.89
2022-11-21T18:42:30.227Z,89.88
2022-11-21T18:45:02.121Z,89.94
2022-11-21T18:47:32.475Z,89.97
2022-11-21T18:50:01.873Z,89.73
2022-11-21T18:52:34.853Z,90.03
2022-11-21T18:55:04.708Z,89.70
2022-11-21T18:57:34.087Z,89.70
2022-11-21T19:00:03.523Z,89.95
2022-11-21T19:02:33.647Z,89.68
2022-11-21T19:05:02.641Z,89.28
2022-11-21T19:07:31.473Z,89.49
2022-11-21T19:10:20.792Z,89.58
2022-11-21T19:12:50.495Z,89.68
2022-11-21T19:15:19.382Z,89.29
2022-11-21T19:17:49.577Z,89.28
2022-11-21T19:20:18.908Z,89.41
2022-11-21T19:22:47.643Z,89.22
2022-11-21T19:25:16.534Z,88.83
2022-11-21T19:27:45.396Z,88.63
2022-11-21T19:30:15.474Z,88.55
2022-11-21T19:32:44.791Z,88.44
2022-11-21T19:35:15.140Z,88.08
2022-11-21T19:37:44.238Z,88.33
2022-11-21T19:40:14.574Z,88.04
2022-11-21T19:42:43.492Z,87.79
2022-11-21T19:45:12.698Z,87.66
2022-11-21T19:47:41.813Z,87.81
2022-11-21T19:50:11.675Z,87.64
2022-11-21T19:52:42.050Z,87.26
2022-11-21T19:55:11.247Z,87.19
2022-11-21T19:57:40.222Z,86.88
2022-11-21T20:00:10.802Z,87.39
2022-11-21T20:02:39.716Z,87.46
2022-11-21T20:05:09.523Z,87.25
2022-11-21T20:07:38.450Z,86.97
2022-11-21T20:10:09.658Z,86.92
2022-11-21T20:12:38.423Z,86.89
2022-11-21T20:15:08.649Z,86.77
2022-11-21T20:17:37.451Z,87.24
2022-11-21T20:20:07.598Z,87.45
2022-11-21T20:22:36.681Z,87.32
2022-11-21T20:25:08.211Z,87.00
2022-11-21T20:27:36.958Z,87.23
2022-11-21T20:30:07.676Z,86.83
2022-11-21T20:32:36.475Z,86.62
2022-11-21T20:35:06.049Z,86.41
2022-11-21T20:37:34.902Z,86.13
2022-11-21T20:40:03.635Z,86.21
2022-11-21T20:42:34.567Z,86.02
2022-11-21T20:47:52.371Z,85.75
2022-11-21T20:50:58.894Z,85.63
2022-11-21T20:56:05.568Z,85.56
2022-11-21T20:58:38.386Z,85.50
2022-11-21T21:01:08.587Z,85.52
2022-11-21T21:03:38.608Z,85.47
2022-11-21T21:06:09.760Z,85.40
2022-11-21T21:08:39.464Z,85.30
2022-11-21T21:11:30.652Z,85.03
2022-11-21T21:14:02.391Z,84.84
2022-11-21T21:16:34.456Z,85.09
2022-11-21T21:19:04.018Z,85.24
2022-11-21T21:21:33.227Z,85.09
2022-11-21T21:24:05.418Z,85.18
2022-11-21T21:26:41.889Z,86.15
2022-11-21T21:29:16.990Z,86.05
2022-11-21T21:31:50.972Z,85.99
2022-11-21T21:34:22.762Z,85.86
2022-11-21T21:36:52.166Z,86.00
2022-11-21T21:39:21.898Z,85.53
2022-11-21T21:41:51.427Z,85.45
2022-11-21T21:44:22.234Z,85.33
2022-11-21T21:46:51.048Z,85.34
2022-11-21T21:49:21.122Z,85.25
2022-11-21T21:51:50.255Z,85.40
2022-11-21T21:54:21.948Z,85.47
2022-11-21T21:56:52.340Z,85.43
2022-11-21T21:59:22.565Z,85.23
2022-11-21T22:01:51.961Z,85.42
2022-11-21T22:04:20.774Z,85.68
2022-11-21T22:06:49.940Z,85.81
2022-11-21T22:09:18.712Z,85.96
2022-11-21T22:11:47.462Z,85.65
2022-11-21T22:14:17.878Z,85.37
2022-11-21T22:16:47.961Z,86.14
2022-11-21T22:21:56.965Z,85.69
2022-11-21T22:24:26.274Z,86.03
2022-11-21T22:26:54.385Z,85.64
2022-11-21T22:29:21.802Z,85.32
2022-11-21T22:31:50.154Z,85.10
2022-11-21T22:34:18.913Z,84.79
2022-11-21T22:36:47.826Z,84.77
2022-11-21T22:39:18.189Z,84.70
2022-11-21T22:41:46.962Z,84.54
2022-11-21T22:44:15.662Z,84.61
2022-11-21T22:46:44.435Z,84.47
2022-11-21T22:49:13.148Z,84.52
2022-11-21T22:51:41.867Z,84.49
2022-11-21T22:54:10.673Z,84.92
2022-11-21T22:56:40.843Z,84.39
2022-11-21T22:59:09.549Z,84.81
2022-11-21T23:01:38.387Z,84.54
2022-11-21T23:04:07.115Z,84.46
2022-11-21T23:06:35.940Z,83.96
2022-11-21T23:09:04.839Z,84.22
2022-11-21T23:11:40.303Z,84.13
2022-11-21T23:14:10.962Z,84.84
2022-11-21T23:16:39.738Z,84.98
2022-11-21T23:19:08.653Z,85.03
2022-11-21T23:21:37.389Z,84.47
2022-11-21T23:24:07.157Z,84.20
2022-11-21T23:26:36.365Z,83.82
2022-11-21T23:29:08.840Z,83.89
2022-11-21T23:31:39.304Z,83.54
2022-11-21T23:34:11.189Z,83.76
2022-11-21T23:36:40.368Z,83.34
2022-11-21T23:39:09.290Z,82.87
2022-11-21T23:41:38.109Z,83.93
2022-11-21T23:44:07.418Z,83.68
2022-11-21T23:46:36.146Z,84.18
2022-11-21T23:49:06.272Z,84.13
2022-11-21T23:51:34.997Z,83.70
2022-11-21T23:54:03.832Z,83.24
2022-11-21T23:56:32.646Z,83.21
2022-11-21T23:59:01.655Z,84.40
